WIA835 TAPA-TNCM
Flight info
| Callsign | WIA835 |
|---|---|
| Flight time | N/A |
| Altitude | 12000 |
| Route | ANU B520 PJM |
| Aircraft | AT46/M-SDFGIRY/S |
Departure
| Time | 2026-05-06 13:40 |
|---|---|
| Airport | V. C. Bird International Airport (TAPA) |
Arrival
| Time | N/A |
|---|---|
| Airport | Princess Juliana International Airport (TNCM) |
| Time | Latitude | Longitude | Altitude | Speed | Heading |
|---|---|---|---|---|---|
| 2026-05-06 13:11 | 17.13969 | -61.79190 | 56 ft | 0 kts | 330° |
| 2026-05-06 13:34 | 17.13971 | -61.79192 | 54 ft | 0 kts | 313° |
| 2026-05-06 13:34 | 17.13969 | -61.79199 | 52 ft | 4 kts | 238° |
| 2026-05-06 13:35 | 17.13957 | -61.79206 | 55 ft | 0 kts | 173° |
| 2026-05-06 13:35 | 17.13944 | -61.79192 | 58 ft | 4 kts | 136° |
| 2026-05-06 13:35 | 17.13930 | -61.79179 | 60 ft | 2 kts | 136° |
| 2026-05-06 13:35 | 17.13905 | -61.79153 | 60 ft | 12 kts | 139° |
| 2026-05-06 13:36 | 17.13873 | -61.79158 | 59 ft | 6 kts | 223° |
| 2026-05-06 13:36 | 17.13834 | -61.79204 | 61 ft | 11 kts | 232° |
| 2026-05-06 13:36 | 17.13788 | -61.79274 | 55 ft | 13 kts | 238° |
| 2026-05-06 13:36 | 17.13737 | -61.79362 | 56 ft | 15 kts | 238° |
| 2026-05-06 13:37 | 17.13684 | -61.79455 | 63 ft | 14 kts | 239° |
| 2026-05-06 13:37 | 17.13633 | -61.79544 | 64 ft | 15 kts | 239° |
| 2026-05-06 13:37 | 17.13573 | -61.79646 | 61 ft | 17 kts | 237° |
| 2026-05-06 13:37 | 17.13512 | -61.79751 | 65 ft | 16 kts | 238° |
| 2026-05-06 13:38 | 17.13453 | -61.79848 | 62 ft | 17 kts | 237° |
| 2026-05-06 13:38 | 17.13441 | -61.79858 | 65 ft | 0 kts | 166° |
| 2026-05-06 13:38 | 17.13429 | -61.79855 | 62 ft | 3 kts | 165° |
| 2026-05-06 13:38 | 17.13402 | -61.79847 | 60 ft | 5 kts | 167° |
| 2026-05-06 13:39 | 17.13365 | -61.79839 | 60 ft | 6 kts | 167° |
| 2026-05-06 13:39 | 17.13349 | -61.79827 | 62 ft | 2 kts | 120° |
| 2026-05-06 13:39 | 17.13352 | -61.79810 | 61 ft | 1 kts | 51° |
| 2026-05-06 13:39 | 17.13387 | -61.79760 | 64 ft | 32 kts | 57° |
| 2026-05-06 13:40 | 17.13731 | -61.79136 | 65 ft | 115 kts | 56° |
| 2026-05-06 13:40 | 17.14072 | -61.78683 | 399 ft | 112 kts | 53° |
| 2026-05-06 13:40 | 17.14674 | -61.78223 | 1039 ft | 119 kts | 20° |
| 2026-05-06 13:40 | 17.15553 | -61.78369 | 1453 ft | 137 kts | 340° |
| 2026-05-06 13:41 | 17.16469 | -61.78514 | 1995 ft | 131 kts | 22° |
| 2026-05-06 13:41 | 17.17462 | -61.78420 | 2360 ft | 161 kts | 338° |
| 2026-05-06 13:41 | 17.18186 | -61.79269 | 2939 ft | 162 kts | 294° |
| 2026-05-06 13:41 | 17.18635 | -61.80354 | 3493 ft | 163 kts | 295° |